sensor_id;sensor_type;location;lat;lon;timestamp;pressure;altitude;pressure_sealevel;temperature;humidity
50133;BME280;46340;53.148;8.204;2022-07-29T00:00:06;101934.13;;;12.95;100.00
50133;BME280;46340;53.148;8.204;2022-07-29T00:02:31;101932.19;;;12.96;100.00
50133;BME280;46340;53.148;8.204;2022-07-29T00:04:57;101934.47;;;12.94;100.00
50133;BME280;46340;53.148;8.204;2022-07-29T00:07:22;101927.63;;;12.91;100.00
50133;BME280;46340;53.148;8.204;2022-07-29T00:09:47;101928.78;;;12.90;100.00
50133;BME280;46340;53.148;8.204;2022-07-29T00:12:12;101935.81;;;12.88;100.00
50133;BME280;46340;53.148;8.204;2022-07-29T00:14:37;101929.09;;;12.89;100.00
50133;BME280;46340;53.148;8.204;2022-07-29T00:17:03;101928.31;;;12.88;100.00
50133;BME280;46340;53.148;8.204;2022-07-29T00:19:28;101925.06;;;12.86;100.00
50133;BME280;46340;53.148;8.204;2022-07-29T00:21:53;101916.25;;;12.84;100.00
50133;BME280;46340;53.148;8.204;2022-07-29T00:24:18;101919.50;;;12.86;100.00
50133;BME280;46340;53.148;8.204;2022-07-29T00:26:43;101923.28;;;12.82;100.00
50133;BME280;46340;53.148;8.204;2022-07-29T00:29:09;101917.72;;;12.82;100.00
50133;BME280;46340;53.148;8.204;2022-07-29T00:31:34;101924.09;;;12.82;100.00
50133;BME280;46340;53.148;8.204;2022-07-29T00:33:59;101921.66;;;12.81;100.00
50133;BME280;46340;53.148;8.204;2022-07-29T00:36:24;101916.44;;;12.79;100.00
50133;BME280;46340;53.148;8.204;2022-07-29T00:38:50;101910.91;;;12.79;100.00
50133;BME280;46340;53.148;8.204;2022-07-29T00:41:16;101900.16;;;12.77;100.00
50133;BME280;46340;53.148;8.204;2022-07-29T00:43:41;101912.84;;;12.78;100.00
50133;BME280;46340;53.148;8.204;2022-07-29T00:46:06;101900.16;;;12.77;100.00
50133;BME280;46340;53.148;8.204;2022-07-29T00:48:31;101898.19;;;12.78;100.00
50133;BME280;46340;53.148;8.204;2022-07-29T00:50:57;101897.22;;;12.74;100.00
50133;BME280;46340;53.148;8.204;2022-07-29T00:53:23;101882.06;;;12.71;100.00
50133;BME280;46340;53.148;8.204;2022-07-29T00:55:48;101888.78;;;12.70;100.00
50133;BME280;46340;53.148;8.204;2022-07-29T00:58:13;101889.44;;;12.67;100.00
50133;BME280;46340;53.148;8.204;2022-07-29T01:00:39;101888.63;;;12.67;100.00
50133;BME280;46340;53.148;8.204;2022-07-29T01:03:05;101884.22;;;12.66;100.00
50133;BME280;46340;53.148;8.204;2022-07-29T01:05:30;101880.97;;;12.64;100.00
50133;BME280;46340;53.148;8.204;2022-07-29T01:07:56;101876.41;;;12.59;100.00
50133;BME280;46340;53.148;8.204;2022-07-29T01:10:22;101878.38;;;12.58;100.00
50133;BME280;46340;53.148;8.204;2022-07-29T01:12:48;101873.97;;;12.57;100.00
50133;BME280;46340;53.148;8.204;2022-07-29T01:15:13;101866.31;;;12.54;100.00
50133;BME280;46340;53.148;8.204;2022-07-29T01:20:31;101863.09;;;12.52;100.00
50133;BME280;46340;53.148;8.204;2022-07-29T01:25:45;101864.09;;;12.48;100.00
50133;BME280;46340;53.148;8.204;2022-07-29T01:28:17;101855.47;;;12.49;100.00
50133;BME280;46340;53.148;8.204;2022-07-29T01:30:47;101866.53;;;12.49;100.00
50133;BME280;46340;53.148;8.204;2022-07-29T01:33:15;101858.72;;;12.51;100.00
50133;BME280;46340;53.148;8.204;2022-07-29T01:36:06;101853.50;;;12.50;100.00
50133;BME280;46340;53.148;8.204;2022-07-29T01:38:32;101847.28;;;12.53;100.00
50133;BME280;46340;53.148;8.204;2022-07-29T01:41:03;101845.00;;;12.55;100.00
50133;BME280;46340;53.148;8.204;2022-07-29T01:43:32;101843.03;;;12.55;100.00
50133;BME280;46340;53.148;8.204;2022-07-29T01:46:02;101840.25;;;12.55;100.00
50133;BME280;46340;53.148;8.204;2022-07-29T01:48:42;101834.72;;;12.55;100.00
50133;BME280;46340;53.148;8.204;2022-07-29T01:51:19;101837.97;;;12.57;100.00
50133;BME280;46340;53.148;8.204;2022-07-29T01:53:55;101828.38;;;12.55;100.00
50133;BME280;46340;53.148;8.204;2022-07-29T01:56:22;101830.31;;;12.54;100.00
50133;BME280;46340;53.148;8.204;2022-07-29T01:58:48;101830.69;;;12.53;100.00
50133;BME280;46340;53.148;8.204;2022-07-29T02:01:14;101823.81;;;12.50;100.00
50133;BME280;46340;53.148;8.204;2022-07-29T02:03:41;101825.13;;;12.53;100.00
50133;BME280;46340;53.148;8.204;2022-07-29T02:06:08;101822.69;;;12.51;100.00
50133;BME280;46340;53.148;8.204;2022-07-29T02:08:34;101823.97;;;12.54;100.00
50133;BME280;46340;53.148;8.204;2022-07-29T02:11:01;101818.44;;;12.54;100.00
50133;BME280;46340;53.148;8.204;2022-07-29T02:13:27;101816.81;;;12.53;100.00
50133;BME280;46340;53.148;8.204;2022-07-29T02:15:53;101812.75;;;12.50;100.00
50133;BME280;46340;53.148;8.204;2022-07-29T02:18:20;101807.53;;;12.49;100.00
50133;BME280;46340;53.148;8.204;2022-07-29T02:20:48;101804.28;;;12.47;100.00
50133;BME280;46340;53.148;8.204;2022-07-29T02:23:14;101805.78;;;12.44;100.00
50133;BME280;46340;53.148;8.204;2022-07-29T02:25:41;101799.28;;;12.40;100.00
50133;BME280;46340;53.148;8.204;2022-07-29T02:28:07;101803.84;;;12.36;100.00
50133;BME280;46340;53.148;8.204;2022-07-29T02:30:33;101805.00;;;12.35;100.00
50133;BME280;46340;53.148;8.204;2022-07-29T02:33:01;101800.94;;;12.32;100.00
50133;BME280;46340;53.148;8.204;2022-07-29T02:35:28;101803.72;;;12.32;100.00
50133;BME280;46340;53.148;8.204;2022-07-29T02:37:54;101804.84;;;12.31;100.00
50133;BME280;46340;53.148;8.204;2022-07-29T02:40:38;101810.84;;;12.33;100.00
50133;BME280;46340;53.148;8.204;2022-07-29T02:43:05;101818.84;;;12.35;100.00
50133;BME280;46340;53.148;8.204;2022-07-29T02:45:32;101818.03;;;12.34;100.00
50133;BME280;46340;53.148;8.204;2022-07-29T02:47:57;101812.81;;;12.33;100.00
50133;BME280;46340;53.148;8.204;2022-07-29T02:50:28;101809.25;;;12.32;100.00
50133;BME280;46340;53.148;8.204;2022-07-29T02:52:57;101807.28;;;12.33;100.00
50133;BME280;46340;53.148;8.204;2022-07-29T02:58:23;101805.78;;;12.35;100.00
50133;BME280;46340;53.148;8.204;2022-07-29T03:00:53;101803.84;;;12.36;100.00
50133;BME280;46340;53.148;8.204;2022-07-29T03:03:20;101793.59;;;12.36;100.00
50133;BME280;46340;53.148;8.204;2022-07-29T03:05:46;101792.78;;;12.36;100.00
50133;BME280;46340;53.148;8.204;2022-07-29T03:08:11;101798.78;;;12.38;100.00
50133;BME280;46340;53.148;8.204;2022-07-29T03:10:42;101793.59;;;12.36;100.00
50133;BME280;46340;53.148;8.204;2022-07-29T03:13:08;101791.47;;;12.33;100.00
50133;BME280;46340;53.148;8.204;2022-07-29T03:15:34;101793.78;;;12.31;100.00
50133;BME280;46340;53.148;8.204;2022-07-29T03:17:59;101791.47;;;12.33;100.00
50133;BME280;46340;53.148;8.204;2022-07-29T03:20:25;101792.78;;;12.36;100.00
50133;BME280;46340;53.148;8.204;2022-07-29T03:22:51;101792.78;;;12.36;100.00
50133;BME280;46340;53.148;8.204;2022-07-29T03:25:17;101791.47;;;12.33;100.00
50133;BME280;46340;53.148;8.204;2022-07-29T03:27:42;101795.88;;;12.34;100.00
50133;BME280;46340;53.148;8.204;2022-07-29T03:30:08;101796.88;;;12.30;100.00
50133;BME280;46340;53.148;8.204;2022-07-29T03:32:34;101785.00;;;12.29;100.00
50133;BME280;46340;53.148;8.204;2022-07-29T03:34:59;101786.97;;;12.29;100.00
50133;BME280;46340;53.148;8.204;2022-07-29T03:37:25;101788.22;;;12.31;100.00
50133;BME280;46340;53.148;8.204;2022-07-29T03:39:50;101787.09;;;12.32;100.00
50133;BME280;46340;53.148;8.204;2022-07-29T03:42:16;101787.09;;;12.32;100.00
50133;BME280;46340;53.148;8.204;2022-07-29T03:44:43;101789.03;;;12.32;100.00
50133;BME280;46340;53.148;8.204;2022-07-29T03:47:09;101789.53;;;12.34;100.00
50133;BME280;46340;53.148;8.204;2022-07-29T03:49:35;101793.59;;;12.36;100.00
50133;BME280;46340;53.148;8.204;2022-07-29T03:52:01;101789.19;;;12.35;100.00
50133;BME280;46340;53.148;8.204;2022-07-29T03:54:26;101782.66;;;12.40;100.00
50133;BME280;46340;53.148;8.204;2022-07-29T03:56:52;101783.31;;;12.37;100.00
50133;BME280;46340;53.148;8.204;2022-07-29T03:59:17;101784.47;;;12.36;100.00
50133;BME280;46340;53.148;8.204;2022-07-29T04:01:45;101775.69;;;12.34;100.00
50133;BME280;46340;53.148;8.204;2022-07-29T04:04:10;101778.94;;;12.36;100.00
50133;BME280;46340;53.148;8.204;2022-07-29T04:06:37;101780.88;;;12.35;100.00
50133;BME280;46340;53.148;8.204;2022-07-29T04:09:02;101782.84;;;12.35;100.00
50133;BME280;46340;53.148;8.204;2022-07-29T04:11:27;101784.00;;;12.34;100.00
50133;BME280;46340;53.148;8.204;2022-07-29T04:13:52;101774.06;;;12.33;100.00
50133;BME280;46340;53.148;8.204;2022-07-29T04:16:18;101782.03;;;12.34;100.00
50133;BME280;46340;53.148;8.204;2022-07-29T04:18:43;101781.72;;;12.36;100.00
50133;BME280;46340;53.148;8.204;2022-07-29T04:21:08;101776.63;;;12.38;100.00
50133;BME280;46340;53.148;8.204;2022-07-29T04:23:33;101779.06;;;12.39;100.00
50133;BME280;46340;53.148;8.204;2022-07-29T04:25:58;101775.66;;;12.43;100.00
50133;BME280;46340;53.148;8.204;2022-07-29T04:28:25;101772.69;;;12.48;100.00
50133;BME280;46340;53.148;8.204;2022-07-29T04:30:51;101776.41;;;12.52;100.00
50133;BME280;46340;53.148;8.204;2022-07-29T04:33:16;101775.75;;;12.55;100.00
50133;BME280;46340;53.148;8.204;2022-07-29T04:35:41;101771.94;;;12.59;100.00
50133;BME280;46340;53.148;8.204;2022-07-29T04:38:06;101774.06;;;12.63;100.00
50133;BME280;46340;53.148;8.204;2022-07-29T04:40:32;101771.91;;;12.68;100.00
50133;BME280;46340;53.148;8.204;2022-07-29T04:42:59;101766.66;;;12.75;100.00
50133;BME280;46340;53.148;8.204;2022-07-29T04:45:24;101763.56;;;12.77;100.00
50133;BME280;46340;53.148;8.204;2022-07-29T04:47:49;101762.84;;;12.80;100.00
50133;BME280;46340;53.148;8.204;2022-07-29T04:50:15;101771.31;;;12.84;100.00
50133;BME280;46340;53.148;8.204;2022-07-29T04:52:40;101777.34;;;12.86;100.00
50133;BME280;46340;53.148;8.204;2022-07-29T04:55:05;101767.19;;;12.90;100.00
50133;BME280;46340;53.148;8.204;2022-07-29T04:57:31;101765.38;;;12.94;100.00
50133;BME280;46340;53.148;8.204;2022-07-29T04:59:56;101767.81;;;12.95;100.00
50133;BME280;46340;53.148;8.204;2022-07-29T05:02:21;101763.22;;;13.00;100.00
50133;BME280;46340;53.148;8.204;2022-07-29T05:04:46;101770.03;;;13.02;100.00
50133;BME280;46340;53.148;8.204;2022-07-29T05:07:12;101771.81;;;13.07;100.00
50133;BME280;46340;53.148;8.204;2022-07-29T05:09:37;101758.53;;;13.12;100.00
50133;BME280;46340;53.148;8.204;2022-07-29T05:12:02;101766.78;;;13.21;100.00
50133;BME280;46340;53.148;8.204;2022-07-29T05:14:27;101761.97;;;13.30;100.00
50133;BME280;46340;53.148;8.204;2022-07-29T05:16:52;101754.78;;;13.38;100.00
50133;BME280;46340;53.148;8.204;2022-07-29T05:19:21;101758.59;;;13.46;100.00
50133;BME280;46340;53.148;8.204;2022-07-29T05:21:46;101754.00;;;13.50;100.00
50133;BME280;46340;53.148;8.204;2022-07-29T05:24:12;101761.78;;;13.57;100.00
50133;BME280;46340;53.148;8.204;2022-07-29T05:26:37;101757.28;;;13.64;100.00
50133;BME280;46340;53.148;8.204;2022-07-29T05:29:03;101757.41;;;13.68;100.00
50133;BME280;46340;53.148;8.204;2022-07-29T05:31:28;101762.06;;;13.76;100.00
50133;BME280;46340;53.148;8.204;2022-07-29T05:33:53;101768.78;;;13.87;100.00
50133;BME280;46340;53.148;8.204;2022-07-29T05:36:18;101776.19;;;13.96;100.00
50133;BME280;46340;53.148;8.204;2022-07-29T05:38:43;101778.88;;;14.04;100.00
50133;BME280;46340;53.148;8.204;2022-07-29T05:41:09;101777.97;;;14.13;100.00
50133;BME280;46340;53.148;8.204;2022-07-29T05:43:34;101776.22;;;14.20;100.00
50133;BME280;46340;53.148;8.204;2022-07-29T05:45:59;101770.66;;;14.20;100.00
50133;BME280;46340;53.148;8.204;2022-07-29T05:48:25;101755.88;;;14.28;100.00
50133;BME280;46340;53.148;8.204;2022-07-29T05:50:50;101759.22;;;14.34;100.00
50133;BME280;46340;53.148;8.204;2022-07-29T05:53:15;101763.28;;;14.37;100.00
50133;BME280;46340;53.148;8.204;2022-07-29T05:55:41;101757.50;;;14.42;100.00
50133;BME280;46340;53.148;8.204;2022-07-29T05:58:06;101761.75;;;14.52;100.00
50133;BME280;46340;53.148;8.204;2022-07-29T06:00:31;101762.03;;;14.59;100.00
50133;BME280;46340;53.148;8.204;2022-07-29T06:02:56;101769.31;;;14.63;100.00
50133;BME280;46340;53.148;8.204;2022-07-29T06:05:22;101770.91;;;14.77;100.00
50133;BME280;46340;53.148;8.204;2022-07-29T06:07:47;101768.81;;;14.86;100.00
50133;BME280;46340;53.148;8.204;2022-07-29T06:10:12;101768.78;;;14.98;100.00
50133;BME280;46340;53.148;8.204;2022-07-29T06:12:38;101760.19;;;15.16;100.00
50133;BME280;46340;53.148;8.204;2022-07-29T06:15:03;101755.47;;;15.32;100.00
50133;BME280;46340;53.148;8.204;2022-07-29T06:17:28;101758.63;;;15.47;100.00
50133;BME280;46340;53.148;8.204;2022-07-29T06:19:53;101762.00;;;15.52;100.00
50133;BME280;46340;53.148;8.204;2022-07-29T06:22:19;101762.28;;;15.63;100.00
50133;BME280;46340;53.148;8.204;2022-07-29T06:24:44;101760.03;;;15.69;100.00
50133;BME280;46340;53.148;8.204;2022-07-29T06:27:10;101762.69;;;15.77;100.00
50133;BME280;46340;53.148;8.204;2022-07-29T06:29:35;101759.09;;;15.77;100.00
50133;BME280;46340;53.148;8.204;2022-07-29T06:32:00;101765.47;;;15.77;100.00
50133;BME280;46340;53.148;8.204;2022-07-29T06:34:25;101761.72;;;15.86;100.00
50133;BME280;46340;53.148;8.204;2022-07-29T06:36:50;101756.69;;;15.91;100.00
50133;BME280;46340;53.148;8.204;2022-07-29T06:39:17;101757.78;;;15.87;100.00
50133;BME280;46340;53.148;8.204;2022-07-29T06:41:45;101757.59;;;15.95;100.00
50133;BME280;46340;53.148;8.204;2022-07-29T06:44:11;101764.94;;;16.04;100.00
50133;BME280;46340;53.148;8.204;2022-07-29T06:46:36;101778.44;;;16.17;100.00
50133;BME280;46340;53.148;8.204;2022-07-29T06:49:01;101774.75;;;16.29;100.00
50133;BME280;46340;53.148;8.204;2022-07-29T06:51:27;101775.91;;;16.44;100.00
50133;BME280;46340;53.148;8.204;2022-07-29T06:53:52;101771.47;;;16.59;100.00
50133;BME280;46340;53.148;8.204;2022-07-29T06:56:17;101768.66;;;16.75;100.00
50133;BME280;46340;53.148;8.204;2022-07-29T06:58:42;101770.78;;;16.98;100.00
50133;BME280;46340;53.148;8.204;2022-07-29T07:01:08;101766.91;;;17.22;100.00
50133;BME280;46340;53.148;8.204;2022-07-29T07:03:33;101762.84;;;17.39;100.00
50133;BME280;46340;53.148;8.204;2022-07-29T07:05:58;101768.53;;;17.42;100.00
50133;BME280;46340;53.148;8.204;2022-07-29T07:08:24;101766.81;;;17.57;100.00
50133;BME280;46340;53.148;8.204;2022-07-29T07:10:49;101771.50;;;17.73;100.00
50133;BME280;46340;53.148;8.204;2022-07-29T07:13:15;101763.31;;;17.83;100.00
50133;BME280;46340;53.148;8.204;2022-07-29T07:15:42;101765.38;;;17.87;100.00
50133;BME280;46340;53.148;8.204;2022-07-29T07:18:07;101760.81;;;17.98;100.00
50133;BME280;46340;53.148;8.204;2022-07-29T07:20:33;101755.53;;;17.93;100.00
50133;BME280;46340;53.148;8.204;2022-07-29T07:22:58;101757.06;;;17.90;100.00
50133;BME280;46340;53.148;8.204;2022-07-29T07:25:23;101758.75;;;17.95;100.00
50133;BME280;46340;53.148;8.204;2022-07-29T07:27:49;101760.81;;;17.98;100.00
50133;BME280;46340;53.148;8.204;2022-07-29T07:30:14;101752.69;;;17.89;100.00
50133;BME280;46340;53.148;8.204;2022-07-29T07:32:39;101758.81;;;17.98;100.00
50133;BME280;46340;53.148;8.204;2022-07-29T07:35:05;101764.72;;;17.93;100.00
50133;BME280;46340;53.148;8.204;2022-07-29T07:37:31;101763.97;;;17.96;100.00
50133;BME280;46340;53.148;8.204;2022-07-29T07:39:56;101772.03;;;18.01;100.00
50133;BME280;46340;53.148;8.204;2022-07-29T07:42:22;101762.16;;;18.08;100.00
50133;BME280;46340;53.148;8.204;2022-07-29T07:44:48;101769.84;;;18.14;100.00
50133;BME280;46340;53.148;8.204;2022-07-29T07:47:13;101773.66;;;18.26;100.00
50133;BME280;46340;53.148;8.204;2022-07-29T07:49:39;101771.75;;;18.33;100.00
50133;BME280;46340;53.148;8.204;2022-07-29T07:52:04;101767.44;;;18.36;100.00
50133;BME280;46340;53.148;8.204;2022-07-29T07:54:29;101774.72;;;18.44;100.00
50133;BME280;46340;53.148;8.204;2022-07-29T07:56:55;101771.56;;;18.46;100.00
50133;BME280;46340;53.148;8.204;2022-07-29T07:59:20;101763.38;;;18.60;100.00
50133;BME280;46340;53.148;8.204;2022-07-29T08:01:46;101764.69;;;18.66;100.00
50133;BME280;46340;53.148;8.204;2022-07-29T08:04:11;101771.75;;;18.83;100.00
50133;BME280;46340;53.148;8.204;2022-07-29T08:06:36;101771.41;;;18.88;100.00
50133;BME280;46340;53.148;8.204;2022-07-29T08:09:02;101769.03;;;18.90;100.00
50133;BME280;46340;53.148;8.204;2022-07-29T08:11:28;101768.72;;;18.95;100.00
50133;BME280;46340;53.148;8.204;2022-07-29T08:13:53;101765.34;;;19.13;100.00
50133;BME280;46340;53.148;8.204;2022-07-29T08:16:19;101762.81;;;19.34;100.00
50133;BME280;46340;53.148;8.204;2022-07-29T08:18:44;101767.31;;;19.46;100.00
50133;BME280;46340;53.148;8.204;2022-07-29T08:21:10;101771.41;;;19.52;100.00
50133;BME280;46340;53.148;8.204;2022-07-29T08:23:35;101762.69;;;19.61;100.00
50133;BME280;46340;53.148;8.204;2022-07-29T08:26:05;101757.13;;;19.65;100.00
50133;BME280;46340;53.148;8.204;2022-07-29T08:28:30;101758.09;;;19.76;100.00
50133;BME280;46340;53.148;8.204;2022-07-29T08:30:55;101766.66;;;19.94;100.00
50133;BME280;46340;53.148;8.204;2022-07-29T08:33:20;101756.63;;;19.93;100.00
50133;BME280;46340;53.148;8.204;2022-07-29T08:35:46;101765.16;;;20.04;100.00
50133;BME280;46340;53.148;8.204;2022-07-29T08:38:11;101763.13;;;20.01;100.00
50133;BME280;46340;53.148;8.204;2022-07-29T08:40:36;101758.34;;;20.05;100.00
50133;BME280;46340;53.148;8.204;2022-07-29T08:43:05;101767.16;;;20.07;100.00
50133;BME280;46340;53.148;8.204;2022-07-29T08:45:31;101754.88;;;20.22;100.00
50133;BME280;46340;53.148;8.204;2022-07-29T08:48:05;101763.06;;;20.42;100.00
50133;BME280;46340;53.148;8.204;2022-07-29T08:50:30;101765.91;;;20.49;100.00
50133;BME280;46340;53.148;8.204;2022-07-29T08:52:56;101766.72;;;20.53;100.00
50133;BME280;46340;53.148;8.204;2022-07-29T08:55:21;101764.25;;;20.44;100.00
50133;BME280;46340;53.148;8.204;2022-07-29T08:57:46;101763.78;;;20.32;100.00
50133;BME280;46340;53.148;8.204;2022-07-29T09:00:12;101758.47;;;20.19;100.00
50133;BME280;46340;53.148;8.204;2022-07-29T09:02:41;101757.56;;;20.08;100.00
50133;BME280;46340;53.148;8.204;2022-07-29T09:05:10;101753.84;;;19.97;100.00
50133;BME280;46340;53.148;8.204;2022-07-29T09:07:35;101752.28;;;19.99;100.00
50133;BME280;46340;53.148;8.204;2022-07-29T09:10:01;101753.16;;;20.07;100.00
50133;BME280;46340;53.148;8.204;2022-07-29T09:12:26;101750.06;;;20.19;100.00
50133;BME280;46340;53.148;8.204;2022-07-29T09:14:51;101747.72;;;20.28;100.00
50133;BME280;46340;53.148;8.204;2022-07-29T09:17:17;101748.53;;;20.33;100.00
50133;BME280;46340;53.148;8.204;2022-07-29T09:19:43;101752.63;;;20.39;100.00
50133;BME280;46340;53.148;8.204;2022-07-29T09:22:08;101745.09;;;20.54;100.00
50133;BME280;46340;53.148;8.204;2022-07-29T09:27:00;101735.31;;;20.89;100.00
50133;BME280;46340;53.148;8.204;2022-07-29T09:29:25;101740.66;;;21.22;100.00
50133;BME280;46340;53.148;8.204;2022-07-29T09:31:52;101740.72;;;21.40;100.00
50133;BME280;46340;53.148;8.204;2022-07-29T09:34:22;101738.38;;;21.57;100.00
50133;BME280;46340;53.148;8.204;2022-07-29T09:36:48;101736.78;;;21.70;100.00
50133;BME280;46340;53.148;8.204;2022-07-29T09:39:14;101731.97;;;21.89;100.00
50133;BME280;46340;53.148;8.204;2022-07-29T09:41:43;101731.19;;;22.10;100.00
50133;BME280;46340;53.148;8.204;2022-07-29T09:44:09;101730.41;;;22.34;100.00
50133;BME280;46340;53.148;8.204;2022-07-29T09:46:34;101719.03;;;22.78;98.54
50133;BME280;46340;53.148;8.204;2022-07-29T09:49:10;101724.59;;;22.92;95.98
50133;BME280;46340;53.148;8.204;2022-07-29T09:51:36;101728.22;;;23.00;93.61
50133;BME280;46340;53.148;8.204;2022-07-29T09:54:02;101724.59;;;23.10;94.67
50133;BME280;46340;53.148;8.204;2022-07-29T09:56:39;101719.16;;;23.48;93.18
50133;BME280;46340;53.148;8.204;2022-07-29T09:59:05;101718.50;;;23.82;89.22
50133;BME280;46340;53.148;8.204;2022-07-29T10:01:30;101715.09;;;24.05;84.87
50133;BME280;46340;53.148;8.204;2022-07-29T10:03:55;101717.28;;;24.32;85.30
50133;BME280;46340;53.148;8.204;2022-07-29T10:06:21;101714.66;;;24.55;83.49
50133;BME280;46340;53.148;8.204;2022-07-29T10:08:46;101714.97;;;24.95;81.50
50133;BME280;46340;53.148;8.204;2022-07-29T10:11:17;101707.41;;;25.20;77.86
50133;BME280;46340;53.148;8.204;2022-07-29T10:13:43;101706.94;;;25.25;77.27
50133;BME280;46340;53.148;8.204;2022-07-29T10:16:09;101708.31;;;25.44;76.15
50133;BME280;46340;53.148;8.204;2022-07-29T10:18:35;101709.81;;;25.48;73.59
50133;BME280;46340;53.148;8.204;2022-07-29T10:21:02;101704.28;;;25.68;73.83
50133;BME280;46340;53.148;8.204;2022-07-29T10:23:28;101708.47;;;25.84;73.12
50133;BME280;46340;53.148;8.204;2022-07-29T10:25:53;101703.84;;;25.97;69.56
50133;BME280;46340;53.148;8.204;2022-07-29T10:28:18;101706.38;;;25.88;69.98
50133;BME280;46340;53.148;8.204;2022-07-29T10:30:44;101708.66;;;25.73;69.66
50133;BME280;46340;53.148;8.204;2022-07-29T10:33:21;101688.88;;;25.46;66.19
50133;BME280;46340;53.148;8.204;2022-07-29T10:44:05;101693.03;;;26.36;64.75
50133;BME280;46340;53.148;8.204;2022-07-29T10:46:39;101690.25;;;26.96;61.97
50133;BME280;46340;53.148;8.204;2022-07-29T10:54:17;101689.41;;;27.85;57.49
50133;BME280;46340;53.148;8.204;2022-07-29T10:56:42;101687.84;;;28.00;57.99
50133;BME280;46340;53.148;8.204;2022-07-29T11:01:48;101683.09;;;28.26;55.60
50133;BME280;46340;53.148;8.204;2022-07-29T11:09:29;101691.56;;;29.40;53.19
50133;BME280;46340;53.148;8.204;2022-07-29T11:11:55;101681.50;;;29.74;52.36
50133;BME280;46340;53.148;8.204;2022-07-29T11:17:04;101678.06;;;30.40;49.70
50133;BME280;46340;53.148;8.204;2022-07-29T11:19:33;101680.22;;;31.33;47.09
50133;BME280;46340;53.148;8.204;2022-07-29T11:21:58;101677.09;;;32.64;44.10
50133;BME280;46340;53.148;8.204;2022-07-29T11:24:30;101671.69;;;34.09;40.18
50133;BME280;46340;53.148;8.204;2022-07-29T11:27:15;101673.53;;;33.97;38.55
50133;BME280;46340;53.148;8.204;2022-07-29T11:29:54;101672.56;;;33.76;38.31
50133;BME280;46340;53.148;8.204;2022-07-29T11:32:20;101671.28;;;33.01;38.57
50133;BME280;46340;53.148;8.204;2022-07-29T11:34:47;101667.25;;;32.28;39.78
50133;BME280;46340;53.148;8.204;2022-07-29T11:44:56;101679.34;;;31.14;38.95
50133;BME280;46340;53.148;8.204;2022-07-29T11:47:22;101689.66;;;30.67;41.28
50133;BME280;46340;53.148;8.204;2022-07-29T11:49:48;101684.94;;;29.69;41.69
50133;BME280;46340;53.148;8.204;2022-07-29T11:52:14;101684.34;;;29.10;42.48
50133;BME280;46340;53.148;8.204;2022-07-29T11:54:40;101681.41;;;29.13;44.31
50133;BME280;46340;53.148;8.204;2022-07-29T11:57:07;101681.50;;;29.10;44.57
50133;BME280;46340;53.148;8.204;2022-07-29T11:59:38;101671.81;;;28.81;44.59
50133;BME280;46340;53.148;8.204;2022-07-29T12:02:03;101672.03;;;28.74;45.71
50133;BME280;46340;53.148;8.204;2022-07-29T12:04:28;101679.63;;;28.77;46.73
50133;BME280;46340;53.148;8.204;2022-07-29T12:06:55;101669.53;;;28.76;46.36
50133;BME280;46340;53.148;8.204;2022-07-29T12:09:21;101677.25;;;28.76;47.86
50133;BME280;46340;53.148;8.204;2022-07-29T12:11:47;101677.91;;;28.67;47.84
50133;BME280;46340;53.148;8.204;2022-07-29T12:16:50;101669.09;;;28.19;49.79
50133;BME280;46340;53.148;8.204;2022-07-29T12:19:15;101672.13;;;28.12;50.41
50133;BME280;46340;53.148;8.204;2022-07-29T12:21:47;101674.25;;;28.08;51.02
50133;BME280;46340;53.148;8.204;2022-07-29T12:24:13;101670.59;;;27.58;51.34
50133;BME280;46340;53.148;8.204;2022-07-29T12:26:51;101670.19;;;27.23;51.94
50133;BME280;46340;53.148;8.204;2022-07-29T12:29:16;101666.53;;;27.06;52.00
50133;BME280;46340;53.148;8.204;2022-07-29T12:31:42;101662.22;;;27.18;53.12
50133;BME280;46340;53.148;8.204;2022-07-29T12:34:08;101662.41;;;27.27;53.55
50133;BME280;46340;53.148;8.204;2022-07-29T12:36:33;101660.25;;;27.51;54.07
50133;BME280;46340;53.148;8.204;2022-07-29T12:38:59;101660.63;;;27.53;53.39
50133;BME280;46340;53.148;8.204;2022-07-29T12:41:24;101663.72;;;27.59;54.73
50133;BME280;46340;53.148;8.204;2022-07-29T12:43:53;101660.88;;;27.75;53.72
50133;BME280;46340;53.148;8.204;2022-07-29T12:46:18;101661.72;;;27.89;52.16
50133;BME280;46340;53.148;8.204;2022-07-29T12:48:43;101657.06;;;27.99;52.80
50133;BME280;46340;53.148;8.204;2022-07-29T12:51:09;101659.09;;;27.65;51.98
50133;BME280;46340;53.148;8.204;2022-07-29T12:53:36;101655.38;;;27.52;53.53
50133;BME280;46340;53.148;8.204;2022-07-29T12:56:02;101655.81;;;27.50;54.30
50133;BME280;46340;53.148;8.204;2022-07-29T12:58:29;101652.97;;;27.67;53.88
50133;BME280;46340;53.148;8.204;2022-07-29T13:01:01;101653.25;;;27.72;53.01
50133;BME280;46340;53.148;8.204;2022-07-29T13:03:27;101650.13;;;27.67;52.95
50133;BME280;46340;53.148;8.204;2022-07-29T13:05:52;101643.69;;;27.50;53.07
50133;BME280;46340;53.148;8.204;2022-07-29T13:08:17;101650.59;;;27.32;54.39
50133;BME280;46340;53.148;8.204;2022-07-29T13:10:44;101644.66;;;27.43;54.15
50133;BME280;46340;53.148;8.204;2022-07-29T13:13:11;101652.28;;;27.46;53.63
50133;BME280;46340;53.148;8.204;2022-07-29T13:15:37;101650.69;;;27.29;51.63
50133;BME280;46340;53.148;8.204;2022-07-29T13:18:03;101650.53;;;27.16;51.90
50133;BME280;46340;53.148;8.204;2022-07-29T13:20:29;101654.16;;;27.16;51.65
50133;BME280;46340;53.148;8.204;2022-07-29T13:22:58;101650.53;;;27.16;51.15